Koyo — JD2279 — position and weather

sailwx.info

Track history (hours):
 
Tides and Currents Weather Stations Pressure Air Temp Water Temp Dewpoint Dewpoint Depression Visibility Wind Speed Wind Dir Waves Ship Positions

Koyo

Last reported at 2016-Aug-24 06:30 UTC. Time now 2016-Aug-25 16:47 UTC.
Position N 34°37' E 134°58'.

Length 80 m; draft 3.7 m.

Type: Cargo ship. MMSI: 431301812.

Date/timePositionNaut miles runAvg speedWind from/ knotsBaromVisibWave heightAir tempDewpointWater temp
2016-Aug-24 06:30N 34°37' E 134°58'2211.2
2016-Aug-24 04:33N 34°38' E 135°24'1 0.9
2016-Aug-24 03:29N 34°38' E 135°25'6 6.6
2016-Aug-24 02:33N 34°38' E 135°18'3 3.1
2016-Aug-24 01:33N 34°40' E 135°14'0 0.0
2016-Aug-24 00:33N 34°40' E 135°14'1 1.0
2016-Aug-23 23:30N 34°39' E 135°15'1 0.6
2016-Aug-23 22:32N 34°38' E 135°15'1111.6
2016-Aug-23 21:33N 34°37' E 135°01'6 0.2
2016-Aug-22 04:28N 34°36' E 134°54'1112.1
2016-Aug-22 03:33N 34°36' E 135°07'7 6.4
2016-Aug-22 02:29N 34°39' E 135°15'0 0.0
2016-Aug-22 01:29N 34°39' E 135°15'0 0.0
2016-Aug-22 00:23N 34°39' E 135°15'0 0.0
2016-Aug-21 23:32N 34°39' E 135°15'3 2.4
2016-Aug-21 22:28N 34°41' E 135°12'0 0.0
2016-Aug-21 21:10N 34°41' E 135°12'0 0.0
2016-Aug-21 20:28N 34°41' E 135°12'0 0.0
2016-Aug-21 19:28N 34°41' E 135°12'0 0.0
2016-Aug-21 18:16N 34°41' E 135°12'0 0.0
2016-Aug-21 17:28N 34°41' E 135°12'0 0.0
2016-Aug-21 16:22N 34°41' E 135°12'0 0.0
2016-Aug-21 15:28N 34°41' E 135°12'0 0.0
2016-Aug-21 14:28N 34°41' E 135°12'0 0.0
2016-Aug-21 13:28N 34°41' E 135°12'0 0.0
2016-Aug-21 12:28N 34°41' E 135°12'0 0.0
2016-Aug-21 11:28N 34°41' E 135°12'0 0.0
2016-Aug-21 10:28N 34°41' E 135°12'0 0.0
2016-Aug-21 09:28N 34°41' E 135°12'0 0.0
2016-Aug-21 08:28N 34°41' E 135°12'0 0.0
2016-Aug-21 07:22N 34°41' E 135°12'0 0.0
2016-Aug-21 06:22N 34°41' E 135°12'0 0.0
2016-Aug-21 05:28N 34°41' E 135°12'0 0.0
2016-Aug-21 04:22N 34°41' E 135°12'0 0.0
2016-Aug-21 03:28N 34°41' E 135°12'0 0.0
2016-Aug-21 02:28N 34°41' E 135°12'0 0.0
2016-Aug-21 01:28N 34°41' E 135°12'0 0.0
2016-Aug-21 00:28N 34°41' E 135°12'0 0.0
2016-Aug-20 23:28N 34°41' E 135°12'0 0.0
2016-Aug-20 22:28N 34°41' E 135°12'0 0.0
2016-Aug-20 21:28N 34°41' E 135°12'0 0.0
2016-Aug-20 20:28N 34°41' E 135°12'0 0.0
2016-Aug-20 19:28N 34°41' E 135°12'0 0.0
2016-Aug-20 18:28N 34°41' E 135°12'0 0.0
2016-Aug-20 17:28N 34°41' E 135°12'0 0.0
2016-Aug-20 16:28N 34°41' E 135°12'0 0.0
2016-Aug-20 15:33N 34°41' E 135°12'5 5.1
2016-Aug-20 14:33N 34°36' E 135°10'1110.9
2016-Aug-20 13:31N 34°35' E 134°56'28 1.0
2016-Aug-19 10:20N 34°08' E 134°49'911.5
2016-Aug-19 09:33N 34°14' E 134°57'1110.6
2016-Aug-19 08:33N 34°24' E 135°02'1212.0
2016-Aug-19 07:33N 34°33' E 135°11'7 6.4
2016-Aug-19 06:28N 34°40' E 135°14'0 0.0
2016-Aug-19 05:28N 34°40' E 135°14'0 0.0
2016-Aug-19 04:22N 34°40' E 135°14'0 0.0
2016-Aug-19 03:28N 34°40' E 135°14'0 0.0
2016-Aug-19 02:28N 34°40' E 135°14'0 0.0
2016-Aug-19 01:28N 34°40' E 135°14'0 0.3
2016-Aug-19 00:33N 34°39' E 135°15'1 0.9
2016-Aug-18 23:31N 34°38' E 135°15'0 0.0
2016-Aug-18 22:31N 34°38' E 135°15'0 0.0
2016-Aug-18 21:31N 34°38' E 135°15'0 0.0
2016-Aug-18 20:25N 34°38' E 135°15'5 5.4
2016-Aug-18 19:33N 34°36' E 135°10'14 0.4
2016-Aug-17 06:29N 34°35' E 134°53'9 9.8
2016-Aug-17 05:33N 34°36' E 135°04'9 9.4
2016-Aug-17 04:34N 34°40' E 135°14'0 0.1
2016-Aug-17 03:20N 34°40' E 135°14'0 0.0
2016-Aug-17 02:14N 34°40' E 135°14'0 0.0
2016-Aug-17 01:32N 34°40' E 135°14'0 0.2
2016-Aug-17 00:34N 34°39' E 135°15'1 0.8
2016-Aug-16 23:31N 34°39' E 135°15'4 4.7
2016-Aug-16 22:34N 34°36' E 135°11'1110.4
2016-Aug-16 21:32N 34°37' E 134°58'8 0.2
2016-Aug-15 06:20N 34°34' E 134°49'2112.0
2016-Aug-15 04:33N 34°37' E 135°14'9 8.7
2016-Aug-15 03:32N 34°38' E 135°25'0 0.2
2016-Aug-15 02:33N 34°37' E 135°25'9 8.2
2016-Aug-15 01:29N 34°39' E 135°15'0 0.0
2016-Aug-15 00:29N 34°39' E 135°15'0 0.0
2016-Aug-14 23:29N 34°39' E 135°15'1 0.7
2016-Aug-14 22:31N 34°39' E 135°15'0 0.0
2016-Aug-14 21:25N 34°39' E 135°15'0 0.0
2016-Aug-14 20:31N 34°39' E 135°15'0 0.0
2016-Aug-14 19:31N 34°39' E 135°15'0 0.1
2016-Aug-14 18:31N 34°39' E 135°15'1010.7
2016-Aug-14 17:33N 34°29' E 135°09'1212.1
2016-Aug-14 16:32N 34°20' E 135°00'  
Track history (hours):
 
Tides and Currents Weather Stations Pressure Air Temp Water Temp Dewpoint Dewpoint Depression Visibility Wind Speed Wind Dir Waves Ship Positions

Koyo

Last reported at 2016-Aug-24 06:30 UTC. Time now 2016-Aug-25 16:47 UTC.
Position N 34°37' E 134°58'.

Length 80 m; draft 3.7 m.

Type: Cargo ship. MMSI: 431301812.

Date/timePositionNaut miles runAvg speedWind from/ knotsBaromVisibWave heightAir tempDewpointWater temp
2016-Aug-24 06:30N 34°37' E 134°58'2211.2
2016-Aug-24 04:33N 34°38' E 135°24'1 0.9
2016-Aug-24 03:29N 34°38' E 135°25'6 6.6
2016-Aug-24 02:33N 34°38' E 135°18'3 3.1
2016-Aug-24 01:33N 34°40' E 135°14'0 0.0
2016-Aug-24 00:33N 34°40' E 135°14'1 1.0
2016-Aug-23 23:30N 34°39' E 135°15'1 0.6
2016-Aug-23 22:32N 34°38' E 135°15'1111.6
2016-Aug-23 21:33N 34°37' E 135°01'6 0.2
2016-Aug-22 04:28N 34°36' E 134°54'1112.1
2016-Aug-22 03:33N 34°36' E 135°07'7 6.4
2016-Aug-22 02:29N 34°39' E 135°15'0 0.0
2016-Aug-22 01:29N 34°39' E 135°15'0 0.0
2016-Aug-22 00:23N 34°39' E 135°15'0 0.0
2016-Aug-21 23:32N 34°39' E 135°15'3 2.4
2016-Aug-21 22:28N 34°41' E 135°12'0 0.0
2016-Aug-21 21:10N 34°41' E 135°12'0 0.0
2016-Aug-21 20:28N 34°41' E 135°12'0 0.0
2016-Aug-21 19:28N 34°41' E 135°12'0 0.0
2016-Aug-21 18:16N 34°41' E 135°12'0 0.0
2016-Aug-21 17:28N 34°41' E 135°12'0 0.0
2016-Aug-21 16:22N 34°41' E 135°12'0 0.0
2016-Aug-21 15:28N 34°41' E 135°12'0 0.0
2016-Aug-21 14:28N 34°41' E 135°12'0 0.0
2016-Aug-21 13:28N 34°41' E 135°12'0 0.0
2016-Aug-21 12:28N 34°41' E 135°12'0 0.0
2016-Aug-21 11:28N 34°41' E 135°12'0 0.0
2016-Aug-21 10:28N 34°41' E 135°12'0 0.0
2016-Aug-21 09:28N 34°41' E 135°12'0 0.0
2016-Aug-21 08:28N 34°41' E 135°12'0 0.0
2016-Aug-21 07:22N 34°41' E 135°12'0 0.0
2016-Aug-21 06:22N 34°41' E 135°12'0 0.0
2016-Aug-21 05:28N 34°41' E 135°12'0 0.0
2016-Aug-21 04:22N 34°41' E 135°12'0 0.0
2016-Aug-21 03:28N 34°41' E 135°12'0 0.0
2016-Aug-21 02:28N 34°41' E 135°12'0 0.0
2016-Aug-21 01:28N 34°41' E 135°12'0 0.0
2016-Aug-21 00:28N 34°41' E 135°12'0 0.0
2016-Aug-20 23:28N 34°41' E 135°12'0 0.0
2016-Aug-20 22:28N 34°41' E 135°12'0 0.0
2016-Aug-20 21:28N 34°41' E 135°12'0 0.0
2016-Aug-20 20:28N 34°41' E 135°12'0 0.0
2016-Aug-20 19:28N 34°41' E 135°12'0 0.0
2016-Aug-20 18:28N 34°41' E 135°12'0 0.0
2016-Aug-20 17:28N 34°41' E 135°12'0 0.0
2016-Aug-20 16:28N 34°41' E 135°12'0 0.0
2016-Aug-20 15:33N 34°41' E 135°12'5 5.1
2016-Aug-20 14:33N 34°36' E 135°10'1110.9
2016-Aug-20 13:31N 34°35' E 134°56'28 1.0
2016-Aug-19 10:20N 34°08' E 134°49'911.5
2016-Aug-19 09:33N 34°14' E 134°57'1110.6
2016-Aug-19 08:33N 34°24' E 135°02'1212.0
2016-Aug-19 07:33N 34°33' E 135°11'7 6.4
2016-Aug-19 06:28N 34°40' E 135°14'0 0.0
2016-Aug-19 05:28N 34°40' E 135°14'0 0.0
2016-Aug-19 04:22N 34°40' E 135°14'0 0.0
2016-Aug-19 03:28N 34°40' E 135°14'0 0.0
2016-Aug-19 02:28N 34°40' E 135°14'0 0.0
2016-Aug-19 01:28N 34°40' E 135°14'0 0.3
2016-Aug-19 00:33N 34°39' E 135°15'1 0.9
2016-Aug-18 23:31N 34°38' E 135°15'0 0.0
2016-Aug-18 22:31N 34°38' E 135°15'0 0.0
2016-Aug-18 21:31N 34°38' E 135°15'0 0.0
2016-Aug-18 20:25N 34°38' E 135°15'5 5.4
2016-Aug-18 19:33N 34°36' E 135°10'14 0.4
2016-Aug-17 06:29N 34°35' E 134°53'9 9.8
2016-Aug-17 05:33N 34°36' E 135°04'9 9.4
2016-Aug-17 04:34N 34°40' E 135°14'0 0.1
2016-Aug-17 03:20N 34°40' E 135°14'0 0.0
2016-Aug-17 02:14N 34°40' E 135°14'0 0.0
2016-Aug-17 01:32N 34°40' E 135°14'0 0.2
2016-Aug-17 00:34N 34°39' E 135°15'1 0.8
2016-Aug-16 23:31N 34°39' E 135°15'4 4.7
2016-Aug-16 22:34N 34°36' E 135°11'1110.4
2016-Aug-16 21:32N 34°37' E 134°58'8 0.2
2016-Aug-15 06:20N 34°34' E 134°49'2112.0
2016-Aug-15 04:33N 34°37' E 135°14'9 8.7
2016-Aug-15 03:32N 34°38' E 135°25'0 0.2
2016-Aug-15 02:33N 34°37' E 135°25'9 8.2
2016-Aug-15 01:29N 34°39' E 135°15'0 0.0
2016-Aug-15 00:29N 34°39' E 135°15'0 0.0
2016-Aug-14 23:29N 34°39' E 135°15'1 0.7
2016-Aug-14 22:31N 34°39' E 135°15'0 0.0
2016-Aug-14 21:25N 34°39' E 135°15'0 0.0
2016-Aug-14 20:31N 34°39' E 135°15'0 0.0
2016-Aug-14 19:31N 34°39' E 135°15'0 0.1
2016-Aug-14 18:31N 34°39' E 135°15'1010.7
2016-Aug-14 17:33N 34°29' E 135°09'1212.1
2016-Aug-14 16:32N 34°20' E 135°00'  

Dump ship's entire track history